createdAt,value
2018-04-02T00:02:14.330Z,15.57
2018-04-02T00:04:41.844Z,16.80
2018-04-02T00:07:09.362Z,15.07
2018-04-02T00:09:36.876Z,15.10
2018-04-02T00:12:04.383Z,15.10
2018-04-02T00:14:31.894Z,13.87
2018-04-02T00:16:59.390Z,14.70
2018-04-02T00:19:27.207Z,14.20
2018-04-02T00:21:54.739Z,14.83
2018-04-02T00:24:22.235Z,13.57
2018-04-02T00:26:49.747Z,13.73
2018-04-02T00:29:17.241Z,14.60
2018-04-02T00:31:44.756Z,13.60
2018-04-02T00:34:12.247Z,14.90
2018-04-02T00:36:39.756Z,14.67
2018-04-02T00:39:07.249Z,13.50
2018-04-02T00:41:34.763Z,13.93
2018-04-02T00:44:02.259Z,14.17
2018-04-02T00:46:29.776Z,14.37
2018-04-02T00:48:57.288Z,13.87
2018-04-02T00:51:24.804Z,14.50
2018-04-02T00:53:52.299Z,14.77
2018-04-02T00:56:19.815Z,13.60
2018-04-02T00:58:47.310Z,15.07
2018-04-02T01:01:14.831Z,13.97
2018-04-02T01:03:42.314Z,14.63
2018-04-02T01:06:09.815Z,14.33
2018-04-02T01:08:37.807Z,15.17
2018-04-02T01:11:05.317Z,14.43
2018-04-02T01:13:32.814Z,16.10
2018-04-02T01:16:00.307Z,14.17
2018-04-02T01:18:27.819Z,14.80
2018-04-02T01:20:55.307Z,14.90
2018-04-02T01:23:22.815Z,15.13
2018-04-02T01:25:50.303Z,15.43
2018-04-02T01:28:17.807Z,15.03
2018-04-02T01:30:45.300Z,15.37
2018-04-02T01:33:12.819Z,15.30
2018-04-02T01:35:40.315Z,16.20
2018-04-02T01:38:07.809Z,17.03
2018-04-02T01:40:35.351Z,16.03
2018-04-02T01:43:02.860Z,15.83
2018-04-02T01:45:30.353Z,15.53
2018-04-02T01:47:57.898Z,16.07
2018-04-02T01:50:25.390Z,15.53
2018-04-02T01:52:52.904Z,17.20
2018-04-02T01:55:20.386Z,16.20
2018-04-02T01:57:47.898Z,15.57
2018-04-02T02:00:15.390Z,16.07
2018-04-02T02:02:42.952Z,16.83
2018-04-02T02:05:10.433Z,15.70
2018-04-02T02:07:37.947Z,16.20
2018-04-02T02:10:05.439Z,16.33
2018-04-02T02:12:32.927Z,16.30
2018-04-02T02:15:00.432Z,16.17
2018-04-02T02:17:27.919Z,15.10
2018-04-02T02:19:55.422Z,16.77
2018-04-02T02:22:22.939Z,16.63
2018-04-02T02:24:50.478Z,16.17
2018-04-02T02:27:17.962Z,16.57
2018-04-02T02:29:45.476Z,17.07
2018-04-02T02:32:12.958Z,16.27
2018-04-02T02:34:40.464Z,17.67
2018-04-02T02:37:07.950Z,17.40
2018-04-02T02:39:35.455Z,16.73
2018-04-02T02:42:02.947Z,15.33
2018-04-02T02:44:30.468Z,16.60
2018-04-02T02:46:57.955Z,15.47
2018-04-02T02:49:25.494Z,17.90
2018-04-02T02:51:52.987Z,15.70
2018-04-02T02:54:20.503Z,16.77
2018-04-02T02:56:47.989Z,17.23
2018-04-02T02:59:16.263Z,17.00
2018-04-02T03:01:43.758Z,16.60
2018-04-02T03:04:12.276Z,17.87
2018-04-02T03:06:39.762Z,17.27
2018-04-02T03:09:07.258Z,16.80
2018-04-02T03:11:34.771Z,17.60
2018-04-02T03:14:02.284Z,16.60
2018-04-02T03:16:29.794Z,16.20
2018-04-02T03:18:57.279Z,18.90
2018-04-02T03:21:24.787Z,17.40
2018-04-02T03:23:52.280Z,17.33
2018-04-02T03:26:19.800Z,17.20
2018-04-02T03:28:47.291Z,17.67
2018-04-02T03:31:14.799Z,17.10
2018-04-02T03:33:42.287Z,17.70
2018-04-02T03:36:09.804Z,17.67
2018-04-02T03:38:37.286Z,17.23
2018-04-02T03:41:04.794Z,18.03
2018-04-02T03:43:32.287Z,17.23
2018-04-02T03:45:59.826Z,16.73
2018-04-02T03:48:27.368Z,18.23
2018-04-02T03:50:54.877Z,17.93
2018-04-02T03:53:22.368Z,17.03
2018-04-02T03:55:49.878Z,18.43
2018-04-02T03:58:17.370Z,18.23
2018-04-02T04:00:44.878Z,17.23
2018-04-02T04:03:12.362Z,18.93
2018-04-02T04:05:39.850Z,18.10
2018-04-02T04:08:07.391Z,18.60
2018-04-02T04:10:34.885Z,19.40
2018-04-02T04:13:02.390Z,20.30
2018-04-02T04:15:29.870Z,19.37
2018-04-02T04:17:57.380Z,19.87
2018-04-02T04:20:24.871Z,19.70
2018-04-02T04:22:52.382Z,19.60
2018-04-02T04:25:19.870Z,20.43
2018-04-02T04:27:47.387Z,19.07
2018-04-02T04:30:14.879Z,19.50
2018-04-02T04:32:42.387Z,18.30
2018-04-02T04:35:09.874Z,19.17
2018-04-02T04:37:37.379Z,19.33
2018-04-02T04:40:04.871Z,19.83
2018-04-02T04:42:32.377Z,20.97
2018-04-02T04:44:59.875Z,21.07
2018-04-02T04:47:27.382Z,21.40
2018-04-02T04:49:54.871Z,22.30
2018-04-02T04:52:22.379Z,22.07
2018-04-02T04:54:49.872Z,27.07
2018-04-02T04:57:17.367Z,28.50
2018-04-02T04:59:44.882Z,26.63
2018-04-02T05:02:12.366Z,23.40
2018-04-02T05:04:39.871Z,22.13
2018-04-02T05:07:07.370Z,20.73
2018-04-02T05:09:34.881Z,21.30
2018-04-02T05:12:02.371Z,20.53
2018-04-02T05:14:29.889Z,20.43
2018-04-02T05:16:57.377Z,20.10
2018-04-02T05:19:24.882Z,19.23
2018-04-02T05:21:52.366Z,19.87
2018-04-02T05:24:19.878Z,18.07
2018-04-02T05:26:47.368Z,18.60
2018-04-02T05:29:15.355Z,17.03
2018-04-02T05:31:42.843Z,14.97
2018-04-02T05:34:11.314Z,16.30
2018-04-02T05:36:38.804Z,16.70
2018-04-02T05:39:06.316Z,15.97
2018-04-02T05:41:33.809Z,14.50
2018-04-02T05:44:01.315Z,13.77
2018-04-02T05:46:28.821Z,15.70
2018-04-02T05:48:56.326Z,15.80
2018-04-02T05:51:23.810Z,15.40
2018-04-02T05:53:51.295Z,15.67
2018-04-02T05:56:18.807Z,15.00
2018-04-02T05:58:46.298Z,14.73
2018-04-02T06:01:13.801Z,13.70
2018-04-02T06:03:41.292Z,15.20
2018-04-02T06:06:08.803Z,14.60
2018-04-02T06:08:36.299Z,15.00
2018-04-02T06:11:03.811Z,15.37
2018-04-02T06:13:31.294Z,15.70
2018-04-02T06:15:58.810Z,16.97
2018-04-02T06:18:26.295Z,13.93
2018-04-02T06:20:53.810Z,13.43
2018-04-02T06:23:21.298Z,12.77
2018-04-02T06:25:48.811Z,11.20
2018-04-02T06:28:16.311Z,12.60
2018-04-02T06:30:43.825Z,10.67
2018-04-02T06:33:11.310Z,9.80
2018-04-02T06:35:38.815Z,9.47
2018-04-02T06:38:06.298Z,9.50
2018-04-02T06:40:33.802Z,8.53
2018-04-02T06:43:01.310Z,9.07
2018-04-02T06:45:28.826Z,8.57
2018-04-02T06:47:56.311Z,8.70
2018-04-02T06:50:23.795Z,8.13
2018-04-02T06:52:51.311Z,8.30
2018-04-02T06:55:18.799Z,7.63
2018-04-02T06:57:46.302Z,8.33
2018-04-02T07:00:13.789Z,7.70
2018-04-02T07:02:41.295Z,8.03
2018-04-02T07:05:08.787Z,9.17
2018-04-02T07:07:36.299Z,10.13
2018-04-02T07:10:03.790Z,9.13
2018-04-02T07:12:31.307Z,8.47
2018-04-02T07:14:58.804Z,8.63
2018-04-02T07:17:26.881Z,7.43
2018-04-02T07:19:54.339Z,8.03
2018-04-02T07:22:21.847Z,8.67
2018-04-02T07:24:49.335Z,8.33
2018-04-02T07:27:16.847Z,7.93
2018-04-02T07:29:44.339Z,8.27
2018-04-02T07:32:11.848Z,8.20
2018-04-02T07:34:39.335Z,7.50
2018-04-02T07:37:06.837Z,8.03
2018-04-02T07:39:34.531Z,7.10
2018-04-02T07:42:02.035Z,6.93
2018-04-02T07:44:29.754Z,6.90
2018-04-02T07:46:57.294Z,7.00
2018-04-02T07:49:24.803Z,6.90
2018-04-02T07:51:52.282Z,6.90
2018-04-02T07:54:20.719Z,6.33
2018-04-02T07:56:48.211Z,6.73
2018-04-02T07:59:15.983Z,6.27
2018-04-02T08:01:43.475Z,5.80
2018-04-02T08:04:10.994Z,6.07
2018-04-02T08:06:38.495Z,6.27
2018-04-02T08:09:05.999Z,6.20
2018-04-02T08:11:33.483Z,6.50
2018-04-02T08:14:00.986Z,6.70
2018-04-02T08:16:28.459Z,6.50
2018-04-02T08:18:55.971Z,6.70
2018-04-02T08:21:23.498Z,7.10
2018-04-02T08:23:50.992Z,7.30
2018-04-02T08:26:18.485Z,6.80
2018-04-02T08:28:46.002Z,6.47
2018-04-02T08:31:13.508Z,6.57
2018-04-02T08:33:41.018Z,7.03
2018-04-02T08:36:08.503Z,5.93
2018-04-02T08:38:36.011Z,7.03
2018-04-02T08:41:03.499Z,6.93
2018-04-02T08:43:30.986Z,5.93
2018-04-02T08:45:58.491Z,5.33
2018-04-02T08:48:25.983Z,5.80
2018-04-02T08:50:53.491Z,5.23
2018-04-02T08:53:20.971Z,5.80
2018-04-02T08:55:48.479Z,5.27
2018-04-02T08:58:16.053Z,5.67
2018-04-02T09:00:43.605Z,5.10
2018-04-02T09:03:11.067Z,5.93
2018-04-02T09:05:38.570Z,5.23
2018-04-02T09:08:06.060Z,5.60
2018-04-02T09:10:33.554Z,4.93
2018-04-02T09:13:01.059Z,4.73
2018-04-02T09:15:28.553Z,6.10
2018-04-02T09:17:56.038Z,5.73
2018-04-02T09:20:23.551Z,5.33
2018-04-02T09:22:51.026Z,5.50
2018-04-02T09:25:18.555Z,5.17
2018-04-02T09:27:46.041Z,5.20
2018-04-02T09:30:13.543Z,5.40
2018-04-02T09:32:41.043Z,5.07
2018-04-02T09:35:08.590Z,4.77
2018-04-02T09:37:36.077Z,4.47
2018-04-02T09:40:03.560Z,4.87
2018-04-02T09:42:31.071Z,5.30
2018-04-02T09:44:58.555Z,4.60
2018-04-02T09:47:26.077Z,5.17
2018-04-02T09:49:53.567Z,4.90
2018-04-02T09:52:21.080Z,4.10
2018-04-02T09:54:48.566Z,4.00
2018-04-02T09:57:16.078Z,4.10
2018-04-02T09:59:43.613Z,3.60
2018-04-02T10:02:13.914Z,3.43
2018-04-02T10:04:43.431Z,3.97
2018-04-02T10:07:10.856Z,4.07
2018-04-02T10:09:38.343Z,4.00
2018-04-02T10:12:05.851Z,4.07
2018-04-02T10:14:33.325Z,3.90
2018-04-02T10:17:01.820Z,3.80
2018-04-02T10:19:29.307Z,3.57
2018-04-02T10:21:56.814Z,3.80
2018-04-02T10:24:24.297Z,3.73
2018-04-02T10:26:51.863Z,3.67
2018-04-02T10:29:19.350Z,3.30
2018-04-02T10:31:46.886Z,3.83
2018-04-02T10:34:14.394Z,4.00
2018-04-02T10:36:41.900Z,3.70
2018-04-02T10:39:09.594Z,3.03
2018-04-02T10:41:37.077Z,3.40
2018-04-02T10:44:04.574Z,3.27
2018-04-02T10:46:32.054Z,3.07
2018-04-02T10:48:59.555Z,3.60
2018-04-02T10:51:27.040Z,3.30
2018-04-02T10:53:54.573Z,2.67
2018-04-02T10:56:22.064Z,3.30
2018-04-02T10:58:49.566Z,3.20
2018-04-02T11:01:17.046Z,2.93
2018-04-02T11:03:44.559Z,2.60
2018-04-02T11:06:12.060Z,2.83
2018-04-02T11:08:39.579Z,2.80
2018-04-02T11:11:07.070Z,2.43
2018-04-02T11:13:34.594Z,2.90
2018-04-02T11:16:02.079Z,2.87
2018-04-02T11:18:29.578Z,3.03
2018-04-02T11:20:57.054Z,2.90
2018-04-02T11:23:24.559Z,2.67
2018-04-02T11:25:52.038Z,2.50
2018-04-02T11:28:19.526Z,2.93
2018-04-02T11:30:48.021Z,2.70
2018-04-02T11:33:15.507Z,3.07
2018-04-02T11:35:43.121Z,2.90
2018-04-02T11:38:10.610Z,2.43
2018-04-02T11:40:38.119Z,2.73
2018-04-02T11:43:05.608Z,2.57
2018-04-02T11:45:33.113Z,3.03
2018-04-02T11:48:00.598Z,2.90
2018-04-02T11:50:28.094Z,2.53
2018-04-02T11:52:55.560Z,2.90
2018-04-02T11:55:23.063Z,2.83
2018-04-02T11:57:50.551Z,2.80
2018-04-02T12:00:18.057Z,2.77
2018-04-02T12:02:45.547Z,2.60
2018-04-02T12:05:13.059Z,2.90
2018-04-02T12:07:40.551Z,2.73
2018-04-02T12:10:08.047Z,3.10
2018-04-02T12:12:35.529Z,3.40
2018-04-02T12:15:03.026Z,3.27
2018-04-02T12:17:30.511Z,2.90
2018-04-02T12:19:58.019Z,2.80
2018-04-02T12:22:25.493Z,3.13
2018-04-02T12:24:52.975Z,2.80
2018-04-02T12:27:20.483Z,3.23
2018-04-02T12:29:47.973Z,2.97
2018-04-02T12:32:15.479Z,2.40
2018-04-02T12:34:42.987Z,2.93
2018-04-02T12:37:10.497Z,2.60
2018-04-02T12:39:37.987Z,2.80
2018-04-02T12:42:05.494Z,2.90
2018-04-02T12:44:32.975Z,2.70
2018-04-02T12:47:00.503Z,2.77
2018-04-02T12:49:28.013Z,2.60
2018-04-02T12:51:55.635Z,2.80
2018-04-02T12:54:23.102Z,2.70
2018-04-02T12:56:50.634Z,2.50
2018-04-02T12:59:18.126Z,2.80
2018-04-02T13:01:45.630Z,2.73
2018-04-02T13:04:13.118Z,2.80
2018-04-02T13:06:40.619Z,2.73
2018-04-02T13:09:08.110Z,2.60
2018-04-02T13:11:35.626Z,2.90
2018-04-02T13:14:03.113Z,2.73
2018-04-02T13:16:30.672Z,2.90
2018-04-02T13:18:58.155Z,2.73
2018-04-02T13:21:25.629Z,2.53
2018-04-02T13:23:53.134Z,2.90
2018-04-02T13:26:20.613Z,3.20
2018-04-02T13:28:49.090Z,2.80
2018-04-02T13:31:16.588Z,2.77
2018-04-02T13:33:44.104Z,2.90
2018-04-02T13:36:11.592Z,3.43
2018-04-02T13:38:39.116Z,3.30
2018-04-02T13:41:06.597Z,3.07
2018-04-02T13:43:34.118Z,3.20
2018-04-02T13:46:01.598Z,3.20
2018-04-02T13:48:29.107Z,3.70
2018-04-02T13:50:57.407Z,3.27
2018-04-02T13:53:24.912Z,2.93
2018-04-02T13:55:52.410Z,2.83
2018-04-02T13:58:19.950Z,2.73
2018-04-02T14:00:47.427Z,3.10
2018-04-02T14:03:14.931Z,2.73
2018-04-02T14:05:42.420Z,2.70
2018-04-02T14:08:09.922Z,2.70
2018-04-02T14:10:37.423Z,2.67
2018-04-02T14:13:04.926Z,2.73
2018-04-02T14:15:32.410Z,3.07
2018-04-02T14:17:59.894Z,3.67
2018-04-02T14:20:27.404Z,3.73
2018-04-02T14:22:54.914Z,3.63
2018-04-02T14:25:22.423Z,3.17
2018-04-02T14:27:49.934Z,2.67
2018-04-02T14:30:17.442Z,3.10
2018-04-02T14:32:44.929Z,3.23
2018-04-02T14:35:12.466Z,3.20
2018-04-02T14:37:39.952Z,3.00
2018-04-02T14:40:07.465Z,2.83
2018-04-02T14:42:34.946Z,2.90
2018-04-02T14:45:02.483Z,2.73
2018-04-02T14:47:29.969Z,2.93
2018-04-02T14:49:57.475Z,2.80
2018-04-02T14:52:24.959Z,3.13
2018-04-02T14:54:52.471Z,3.30
2018-04-02T14:57:19.970Z,3.00
2018-04-02T14:59:47.480Z,2.53
2018-04-02T15:02:14.961Z,2.53
2018-04-02T15:04:42.467Z,2.40
2018-04-02T15:07:09.969Z,2.40
2018-04-02T15:09:37.506Z,2.77
2018-04-02T15:12:04.995Z,2.33
2018-04-02T15:14:32.475Z,2.47
2018-04-02T15:16:59.983Z,2.43
2018-04-02T15:19:27.471Z,2.53
2018-04-02T15:21:54.991Z,2.50
2018-04-02T15:24:22.483Z,2.40
2018-04-02T15:26:49.988Z,2.90
2018-04-02T15:29:17.484Z,2.80
2018-04-02T15:31:44.994Z,2.77
2018-04-02T15:34:12.479Z,2.47
2018-04-02T15:36:39.984Z,2.53
2018-04-02T15:39:07.475Z,2.33
2018-04-02T15:41:34.993Z,2.53
2018-04-02T15:44:02.473Z,3.07
2018-04-02T15:46:29.973Z,2.30
2018-04-02T15:48:57.453Z,2.80
2018-04-02T15:51:24.960Z,2.50
2018-04-02T15:53:52.445Z,3.53
2018-04-02T15:56:19.956Z,2.43
2018-04-02T15:58:47.439Z,2.20
2018-04-02T16:01:14.938Z,2.40
2018-04-02T16:03:42.428Z,2.50
2018-04-02T16:06:09.985Z,2.50
2018-04-02T16:08:37.454Z,2.27
2018-04-02T16:11:04.947Z,2.50
2018-04-02T16:13:32.442Z,2.30
2018-04-02T16:15:59.932Z,2.23
2018-04-02T16:18:27.458Z,2.50
2018-04-02T16:20:54.938Z,2.23
2018-04-02T16:23:23.317Z,2.20
2018-04-02T16:25:50.847Z,2.50
2018-04-02T16:28:18.359Z,2.30
2018-04-02T16:30:45.881Z,2.10
2018-04-02T16:33:13.393Z,2.27
2018-04-02T16:35:41.688Z,2.03
2018-04-02T16:38:09.198Z,2.30
2018-04-02T16:40:36.692Z,2.30
2018-04-02T16:43:04.531Z,2.50
2018-04-02T16:45:32.036Z,2.20
2018-04-02T16:47:59.590Z,2.20
2018-04-02T16:50:27.083Z,2.20
2018-04-02T16:52:54.592Z,2.17
2018-04-02T16:55:22.074Z,2.23
2018-04-02T16:57:49.599Z,2.40
2018-04-02T17:00:17.097Z,2.40
2018-04-02T17:02:44.606Z,2.20
2018-04-02T17:05:12.090Z,2.00
2018-04-02T17:07:39.577Z,2.10
2018-04-02T17:10:07.084Z,2.70
2018-04-02T17:12:34.567Z,2.50
2018-04-02T17:15:02.127Z,2.70
2018-04-02T17:17:29.631Z,2.30
2018-04-02T17:19:57.147Z,2.90
2018-04-02T17:22:24.638Z,2.50
2018-04-02T17:24:52.152Z,2.37
2018-04-02T17:27:19.639Z,2.50
2018-04-02T17:29:47.361Z,2.33
2018-04-02T17:32:14.662Z,2.03
2018-04-02T17:34:42.174Z,2.10
2018-04-02T17:37:09.675Z,2.27
2018-04-02T17:39:37.190Z,2.57
2018-04-02T17:42:04.666Z,2.80
2018-04-02T17:44:32.195Z,2.03
2018-04-02T17:46:59.700Z,2.07
2018-04-02T17:49:27.193Z,2.50
2018-04-02T17:51:54.678Z,2.50
2018-04-02T17:54:22.178Z,2.80
2018-04-02T17:56:49.660Z,2.73
2018-04-02T17:59:17.186Z,3.20
2018-04-02T18:01:44.716Z,3.10
2018-04-02T18:04:12.193Z,3.10
2018-04-02T18:06:39.699Z,2.60
2018-04-02T18:09:07.202Z,2.77
2018-04-02T18:11:34.712Z,3.20
2018-04-02T18:14:03.147Z,2.80
2018-04-02T18:16:30.659Z,2.77
2018-04-02T18:18:58.147Z,3.07
2018-04-02T18:21:25.655Z,3.17
2018-04-02T18:23:53.130Z,2.90
2018-04-02T18:26:20.632Z,3.17
2018-04-02T18:28:48.110Z,2.70
2018-04-02T18:31:15.614Z,2.93
2018-04-02T18:33:43.118Z,3.00
2018-04-02T18:36:10.622Z,3.10
2018-04-02T18:38:38.189Z,2.80
2018-04-02T18:41:05.819Z,3.00
2018-04-02T18:43:33.313Z,2.90
2018-04-02T18:46:00.914Z,2.90
2018-04-02T18:48:28.441Z,2.73
2018-04-02T18:50:56.832Z,2.87
2018-04-02T18:53:25.198Z,3.20
2018-04-02T18:55:52.710Z,2.90
2018-04-02T18:58:20.262Z,3.37
2018-04-02T19:00:47.782Z,3.20
2018-04-02T19:03:15.495Z,3.13
2018-04-02T19:05:43.059Z,2.97
2018-04-02T19:08:10.655Z,3.20
2018-04-02T19:10:38.170Z,3.43
2018-04-02T19:13:05.736Z,3.27
2018-04-02T19:15:33.345Z,3.43
2018-04-02T19:18:00.941Z,3.63
2018-04-02T19:20:29.478Z,3.63
2018-04-02T19:22:57.071Z,4.00
2018-04-02T19:25:24.622Z,3.90
2018-04-02T19:27:52.130Z,3.67
2018-04-02T19:30:19.701Z,3.93
2018-04-02T19:32:47.230Z,4.07
2018-04-02T19:35:14.731Z,3.93
2018-04-02T19:37:42.312Z,3.63
2018-04-02T19:40:09.885Z,3.77
2018-04-02T19:42:37.395Z,4.17
2018-04-02T19:45:04.987Z,4.10
2018-04-02T19:47:32.619Z,3.87
2018-04-02T19:50:00.107Z,3.53
2018-04-02T19:52:27.614Z,4.37
2018-04-02T19:54:55.091Z,4.70
2018-04-02T19:57:22.654Z,4.57
2018-04-02T19:59:50.334Z,3.53
2018-04-02T20:02:17.806Z,4.17
2018-04-02T20:04:45.400Z,4.40
2018-04-02T20:07:12.869Z,4.20
2018-04-02T20:09:40.374Z,4.43
2018-04-02T20:12:07.864Z,4.47
2018-04-02T20:14:35.383Z,4.40
2018-04-02T20:17:02.866Z,4.07
2018-04-02T20:19:30.366Z,4.27
2018-04-02T20:21:57.860Z,4.30
2018-04-02T20:24:25.394Z,4.20
2018-04-02T20:26:52.872Z,3.93
2018-04-02T20:29:20.388Z,3.77
2018-04-02T20:31:47.871Z,3.63
2018-04-02T20:34:15.370Z,3.87
2018-04-02T20:36:42.946Z,4.10
2018-04-02T20:39:10.448Z,3.40
2018-04-02T20:41:37.934Z,3.47
2018-04-02T20:44:05.438Z,3.43
2018-04-02T20:46:32.918Z,3.80
2018-04-02T20:49:00.435Z,3.50
2018-04-02T20:51:27.942Z,3.40
2018-04-02T20:53:55.423Z,3.70
2018-04-02T20:56:22.930Z,3.60
2018-04-02T20:58:50.420Z,3.43
2018-04-02T21:01:17.982Z,3.10
2018-04-02T21:03:45.456Z,3.90
2018-04-02T21:06:12.958Z,3.50
2018-04-02T21:08:40.444Z,3.70
2018-04-02T21:11:08.879Z,3.70
2018-04-02T21:13:36.364Z,3.60
2018-04-02T21:16:03.896Z,3.47
2018-04-02T21:18:31.374Z,3.50
2018-04-02T21:20:58.879Z,3.43
2018-04-02T21:23:26.357Z,4.30
2018-04-02T21:25:53.895Z,4.00
2018-04-02T21:28:21.371Z,3.93
2018-04-02T21:30:48.894Z,3.97
2018-04-02T21:33:16.374Z,3.87
2018-04-02T21:35:43.883Z,3.60
2018-04-02T21:38:11.390Z,3.53
2018-04-02T21:40:38.897Z,3.43
2018-04-02T21:43:06.395Z,3.90
2018-04-02T21:45:33.915Z,3.70
2018-04-02T21:48:01.407Z,3.57
2018-04-02T21:50:28.896Z,4.00
2018-04-02T21:52:56.407Z,4.13
2018-04-02T21:55:23.895Z,3.87
2018-04-02T21:57:51.400Z,3.67
2018-04-02T22:00:18.875Z,3.77
2018-04-02T22:02:46.382Z,3.53
2018-04-02T22:05:13.872Z,3.77
2018-04-02T22:07:41.379Z,3.47
2018-04-02T22:10:08.886Z,3.60
2018-04-02T22:12:36.397Z,3.23
2018-04-02T22:15:03.879Z,3.33
2018-04-02T22:17:31.386Z,3.57
2018-04-02T22:19:58.868Z,3.77
2018-04-02T22:22:26.379Z,3.23
2018-04-02T22:24:53.872Z,3.30
2018-04-02T22:27:21.378Z,3.83
2018-04-02T22:29:48.863Z,2.90
2018-04-02T22:32:16.374Z,3.03
2018-04-02T22:34:43.859Z,3.23
2018-04-02T22:37:11.334Z,3.03
2018-04-02T22:39:38.835Z,3.20
2018-04-02T22:42:06.317Z,3.33
2018-04-02T22:44:33.831Z,3.40
2018-04-02T22:47:02.749Z,3.10
2018-04-02T22:49:28.838Z,3.77
2018-04-02T22:51:56.334Z,3.33
2018-04-02T22:54:23.836Z,3.60
2018-04-02T22:56:51.309Z,3.10
2018-04-02T22:59:18.822Z,3.63
2018-04-02T23:01:46.372Z,3.17
2018-04-02T23:04:13.866Z,3.30
2018-04-02T23:06:41.355Z,3.30
2018-04-02T23:09:08.858Z,3.57
2018-04-02T23:11:36.334Z,3.80
2018-04-02T23:14:04.811Z,4.10
2018-04-02T23:16:32.286Z,3.70
2018-04-02T23:18:59.786Z,5.13
2018-04-02T23:21:27.269Z,4.60
2018-04-02T23:23:54.766Z,4.97
2018-04-02T23:26:22.246Z,4.80
2018-04-02T23:28:49.752Z,4.00
2018-04-02T23:31:17.239Z,4.73
2018-04-02T23:33:44.719Z,6.33
2018-04-02T23:36:13.240Z,5.43
2018-04-02T23:38:40.722Z,4.80
2018-04-02T23:41:08.228Z,4.93
2018-04-02T23:43:35.702Z,5.10
2018-04-02T23:46:03.200Z,5.30
2018-04-02T23:48:30.681Z,5.10
2018-04-02T23:50:58.194Z,4.67
2018-04-02T23:55:55.734Z,5.53
2018-04-02T23:58:23.206Z,5.30
